Time;durP1;ratioP1;P1;durP2;ratioP2;P2;SDS_P1;SDS_P2;PMS_P1;PMS_P2;Temp;Humidity;BMP_temperature;BMP_pressure;BME280_temperature;BME280_humidity;BME280_pressure;Samples;Min_cycle;Max_cycle;Signal;HPM_P1;HPM_P2
2021/04/27 00:00:12;;;;;;;7.63;4.43;;;3.70;78.60;;;;;;5107613;28;20071;-48
2021/04/27 00:02:39;;;;;;;10.55;5.03;;;3.70;79.10;;;;;;5107482;28;20496;-45
2021/04/27 00:05:09;;;;;;;11.38;4.95;;;3.70;79.30;;;;;;5106812;28;20411;-48
2021/04/27 00:07:35;;;;;;;9.07;5.15;;;3.70;79.00;;;;;;5107127;28;20480;-47
2021/04/27 00:10:02;;;;;;;10.07;5.13;;;3.60;79.00;;;;;;5035092;28;20131;-47
2021/04/27 00:12:28;;;;;;;7.63;4.55;;;3.60;79.00;;;;;;5107379;28;20074;-46
2021/04/27 00:14:54;;;;;;;7.85;4.70;;;3.60;79.20;;;;;;5107126;28;20411;-49
2021/04/27 00:17:20;;;;;;;7.53;4.68;;;3.60;79.40;;;;;;5107321;28;20047;-45
2021/04/27 00:19:46;;;;;;;11.43;5.00;;;3.60;79.40;;;;;;5106614;28;20046;-47
2021/04/27 00:22:12;;;;;;;12.68;5.10;;;3.60;79.70;;;;;;5105907;28;20039;-46
2021/04/27 00:24:38;;;;;;;7.78;5.10;;;3.50;79.80;;;;;;5111439;28;20063;-47
2021/04/27 00:27:04;;;;;;;8.07;4.97;;;3.50;79.60;;;;;;5106196;28;20047;-45
2021/04/27 00:29:30;;;;;;;7.95;4.75;;;3.50;79.90;;;;;;5107013;28;20054;-46
2021/04/27 00:31:56;;;;;;;12.57;5.07;;;3.50;80.00;;;;;;5106448;28;20047;-46
2021/04/27 00:34:22;;;;;;;21.40;10.73;;;3.50;80.10;;;;;;5105057;28;20112;-45
2021/04/27 00:36:49;;;;;;;19.42;10.18;;;3.40;80.60;;;;;;5106995;28;20055;-46
2021/04/27 00:39:15;;;;;;;22.83;11.07;;;3.40;80.90;;;;;;5106744;28;20058;-47
2021/04/27 00:41:41;;;;;;;24.42;13.52;;;3.40;80.30;;;;;;5106479;28;20044;-49
2021/04/27 00:44:07;;;;;;;18.42;13.55;;;3.40;80.20;;;;;;5109136;28;20127;-47
2021/04/27 00:46:33;;;;;;;12.90;8.02;;;3.40;80.30;;;;;;5106304;28;20519;-48
2021/04/27 00:48:59;;;;;;;10.50;5.97;;;3.50;80.30;;;;;;5107069;28;20388;-47
2021/04/27 00:51:26;;;;;;;10.38;5.18;;;3.40;80.00;;;;;;5107598;28;20055;-48
2021/04/27 00:53:52;;;;;;;16.00;12.05;;;3.30;80.80;;;;;;5085035;28;20415;-44
2021/04/27 00:56:20;;;;;;;15.73;14.02;;;3.40;80.50;;;;;;5106399;28;20054;-47
2021/04/27 00:58:46;;;;;;;11.73;8.88;;;3.30;80.90;;;;;;5106174;28;20047;-47
2021/04/27 01:01:13;;;;;;;14.77;11.00;;;3.30;81.00;;;;;;5107495;28;20062;-49
2021/04/27 01:03:40;;;;;;;13.88;8.20;;;3.30;81.60;;;;;;5105765;28;20048;-48
2021/04/27 01:06:08;;;;;;;12.10;6.55;;;3.30;81.60;;;;;;5106072;28;20079;-47
2021/04/27 01:08:48;;;;;;;10.20;5.75;;;3.30;81.50;;;;;;5106032;28;20058;-45
2021/04/27 01:11:42;;;;;;;24.35;13.20;;;3.30;81.40;;;;;;5104822;28;20043;-48
2021/04/27 01:14:33;;;;;;;20.20;12.45;;;3.20;81.60;;;;;;5105529;28;20050;-43
2021/04/27 01:17:04;;;;;;;11.75;7.35;;;3.20;81.70;;;;;;5085599;28;20067;-48
2021/04/27 01:19:46;;;;;;;12.45;6.60;;;3.20;81.70;;;;;;5087806;28;20130;-47
2021/04/27 01:22:17;;;;;;;9.77;6.20;;;3.20;81.60;;;;;;5104793;28;20047;-48
2021/04/27 01:24:49;;;;;;;9.27;6.13;;;3.20;81.90;;;;;;5105137;28;20043;-48
2021/04/27 01:27:17;;;;;;;10.40;6.38;;;3.20;81.80;;;;;;5108886;28;20109;-49
2021/04/27 01:29:44;;;;;;;10.40;5.82;;;3.10;82.00;;;;;;5109361;28;20055;-46
2021/04/27 01:32:10;;;;;;;11.90;5.90;;;3.10;82.20;;;;;;5109470;28;20403;-46
2021/04/27 01:34:40;;;;;;;9.57;5.45;;;3.10;82.10;;;;;;5109493;28;20047;-48
2021/04/27 01:37:18;;;;;;;6.90;5.63;;;3.10;82.10;;;;;;5090678;28;20055;-47
2021/04/27 01:39:45;;;;;;;9.75;6.00;;;3.10;82.30;;;;;;5091069;28;20399;-46
2021/04/27 01:42:11;;;;;;;9.45;6.30;;;3.00;82.40;;;;;;5109667;28;20043;-47
2021/04/27 01:44:39;;;;;;;7.70;5.82;;;3.10;82.40;;;;;;5090813;28;20059;-50
2021/04/27 01:47:08;;;;;;;7.25;5.28;;;3.10;82.80;;;;;;5090383;28;20043;-50
2021/04/27 01:49:35;;;;;;;10.38;6.15;;;3.00;82.40;;;;;;5091175;28;20055;-48
2021/04/27 01:52:24;;;;;;;10.93;5.93;;;3.00;82.60;;;;;;5017299;28;20095;-48
2021/04/27 01:54:54;;;;;;;10.80;5.90;;;3.00;82.60;;;;;;5016985;28;20062;-46
2021/04/27 01:57:20;;;;;;;10.93;6.82;;;3.10;83.10;;;;;;5003104;28;20469;-46
2021/04/27 01:59:47;;;;;;;14.02;7.75;;;3.00;83.00;;;;;;4993408;28;20099;-45
2021/04/27 02:02:21;;;;;;;12.43;8.75;;;3.00;82.80;;;;;;5013435;28;20131;-51
2021/04/27 02:05:02;;;;;;;19.60;9.65;;;3.00;83.50;;;;;;5017368;28;20628;-49
2021/04/27 02:07:56;;;;;;;14.38;9.77;;;3.00;83.30;;;;;;5005639;28;20128;-51
2021/04/27 02:10:26;;;;;;;15.23;9.13;;;3.00;83.10;;;;;;5006248;28;20045;-49
2021/04/27 02:12:53;;;;;;;16.63;9.82;;;2.90;83.80;;;;;;5009926;28;20127;-43
2021/04/27 02:15:23;;;;;;;12.23;6.95;;;2.90;83.40;;;;;;5007224;28;20183;-48
2021/04/27 02:18:03;;;;;;;22.40;12.23;;;2.90;83.40;;;;;;5010574;28;20064;-47
2021/04/27 02:20:29;;;;;;;19.15;9.48;;;2.90;83.50;;;;;;5014776;28;20060;-45
2021/04/27 02:23:04;;;;;;;12.13;8.70;;;2.90;83.40;;;;;;5017965;28;20045;-46
2021/04/27 02:25:52;;;;;;;10.75;6.93;;;2.80;84.00;;;;;;5021546;28;20060;-45
2021/04/27 02:28:19;;;;;;;9.57;6.38;;;2.80;84.20;;;;;;5003740;28;20084;-44
2021/04/27 02:30:46;;;;;;;10.70;7.10;;;2.70;84.30;;;;;;5108839;28;20054;-45
2021/04/27 02:33:14;;;;;;;13.07;7.00;;;2.70;84.50;;;;;;5109330;28;20066;-46
2021/04/27 02:35:42;;;;;;;9.60;6.07;;;2.70;84.80;;;;;;5089305;28;20070;-47
2021/04/27 02:38:20;;;;;;;11.95;7.07;;;2.70;84.40;;;;;;5089922;28;20070;-46
2021/04/27 02:40:55;;;;;;;10.63;6.90;;;2.70;84.40;;;;;;5090435;28;20070;-44
2021/04/27 02:43:23;;;;;;;10.10;6.22;;;2.60;84.70;;;;;;5087193;28;20056;-43
2021/04/27 02:45:50;;;;;;;13.75;6.90;;;2.60;84.20;;;;;;5108428;28;20093;-43
2021/04/27 02:48:21;;;;;;;12.90;7.95;;;2.50;84.50;;;;;;5108395;28;20047;-42
2021/04/27 02:51:00;;;;;;;11.23;6.95;;;2.50;84.40;;;;;;5091302;28;20100;-44
2021/04/27 02:53:33;;;;;;;10.85;7.25;;;2.50;84.50;;;;;;5090091;28;20059;-46
2021/04/27 02:55:59;;;;;;;13.30;7.22;;;2.50;84.70;;;;;;5071655;28;20066;-46
2021/04/27 02:58:25;;;;;;;12.20;7.82;;;2.40;84.80;;;;;;5089111;28;20404;-46
2021/04/27 03:00:58;;;;;;;12.75;7.70;;;2.40;84.80;;;;;;5090747;28;20146;-46
2021/04/27 03:03:24;;;;;;;14.57;7.18;;;2.40;85.00;;;;;;5108124;28;20487;-49
2021/04/27 03:05:51;;;;;;;14.10;7.45;;;2.40;85.30;;;;;;5089484;28;20047;-48
2021/04/27 03:08:19;;;;;;;9.30;6.65;;;2.40;85.50;;;;;;5088732;28;20048;-48
2021/04/27 03:10:46;;;;;;;15.07;7.47;;;2.30;85.90;;;;;;5093064;28;20119;-44
2021/04/27 03:13:12;;;;;;;11.80;7.03;;;2.30;85.70;;;;;;5089948;28;20503;-45
2021/04/27 03:15:50;;;;;;;12.07;7.65;;;2.30;85.80;;;;;;5090229;28;20043;-48
2021/04/27 03:18:16;;;;;;;11.63;8.00;;;2.30;85.90;;;;;;5107434;28;20044;-49
2021/04/27 03:20:44;;;;;;;12.93;7.10;;;2.30;85.70;;;;;;5088870;28;20048;-43
2021/04/27 03:23:30;;;;;;;12.13;7.20;;;2.20;85.80;;;;;;5091341;28;20051;-47
2021/04/27 03:25:56;;;;;;;10.98;7.63;;;2.20;85.90;;;;;;5095589;28;20432;-48
2021/04/27 03:28:32;;;;;;;13.80;7.50;;;2.20;85.90;;;;;;5089455;28;20084;-49
2021/04/27 03:31:03;;;;;;;11.20;7.57;;;2.20;86.00;;;;;;5089671;28;20051;-48
2021/04/27 03:33:29;;;;;;;12.57;7.43;;;2.10;85.40;;;;;;5089622;28;20078;-46
2021/04/27 03:35:56;;;;;;;11.93;7.30;;;2.00;85.70;;;;;;5089258;28;20047;-45
2021/04/27 03:38:23;;;;;;;11.10;8.13;;;2.00;86.20;;;;;;5087906;28;20054;-47
2021/04/27 03:40:50;;;;;;;11.07;7.15;;;2.00;86.00;;;;;;5107732;28;20404;-45
2021/04/27 03:43:22;;;;;;;12.18;8.20;;;2.00;86.10;;;;;;5052153;28;20562;-44
2021/04/27 03:45:49;;;;;;;14.57;7.82;;;2.00;85.90;;;;;;5088420;28;20054;-50
2021/04/27 03:48:19;;;;;;;11.48;8.55;;;2.00;85.80;;;;;;5088292;28;20114;-47
2021/04/27 03:50:56;;;;;;;10.40;7.88;;;2.00;86.40;;;;;;5086189;28;20043;-49
2021/04/27 03:53:41;;;;;;;14.52;7.85;;;2.00;86.30;;;;;;5107417;28;20578;-47
2021/04/27 03:56:12;;;;;;;11.82;8.02;;;2.00;86.20;;;;;;5090093;28;20077;-46
2021/04/27 03:58:40;;;;;;;13.85;7.72;;;1.90;86.30;;;;;;5088587;28;20063;-47
2021/04/27 04:01:07;;;;;;;12.45;9.38;;;1.90;86.30;;;;;;5074251;28;20118;-48
2021/04/27 04:03:37;;;;;;;9.60;7.45;;;1.90;86.30;;;;;;5107087;28;20051;-47
2021/04/27 04:06:08;;;;;;;14.35;8.23;;;1.90;86.70;;;;;;5089371;28;20058;-46
2021/04/27 04:09:10;;;;;;;10.70;8.40;;;1.90;86.70;;;;;;5013386;28;20054;-46
2021/04/27 04:12:06;;;;;;;15.43;8.45;;;1.90;86.80;;;;;;5008245;28;20069;-45
2021/04/27 04:14:32;;;;;;;10.60;7.50;;;1.90;86.80;;;;;;5013166;28;20061;-46
2021/04/27 04:17:07;;;;;;;15.27;9.02;;;1.90;86.50;;;;;;4998093;28;20085;-46
2021/04/27 04:19:34;;;;;;;13.27;8.50;;;1.90;86.40;;;;;;5004612;28;20156;-45
2021/04/27 04:22:07;;;;;;;13.30;8.35;;;1.90;86.30;;;;;;4995785;28;20037;-46
2021/04/27 04:24:43;;;;;;;12.93;8.65;;;1.80;86.10;;;;;;4999626;28;20140;-45
2021/04/27 04:27:09;;;;;;;14.63;9.38;;;1.80;86.30;;;;;;5011020;28;20059;-46
2021/04/27 04:30:20;;;;;;;12.90;8.85;;;1.80;86.30;;;;;;4976265;28;20058;-45
2021/04/27 04:32:47;;;;;;;10.85;7.55;;;1.90;86.20;;;;;;4967843;28;20624;-46
2021/04/27 04:35:19;;;;;;;11.90;8.10;;;1.90;86.00;;;;;;4977505;28;20137;-46
2021/04/27 04:38:04;;;;;;;12.73;9.25;;;1.90;85.70;;;;;;4972300;28;20050;-48
2021/04/27 04:40:49;;;;;;;13.25;7.63;;;1.90;86.10;;;;;;4975629;28;20059;-46
2021/04/27 04:43:34;;;;;;;10.27;7.88;;;1.90;86.20;;;;;;5018217;28;20061;-45
2021/04/27 04:46:20;;;;;;;11.25;8.60;;;1.90;85.90;;;;;;5005198;28;20054;-47
2021/04/27 04:48:56;;;;;;;9.60;6.93;;;1.90;85.30;;;;;;5001331;28;20177;-49
2021/04/27 04:51:40;;;;;;;9.38;7.05;;;1.90;85.10;;;;;;5003784;28;20049;-46
2021/04/27 04:54:09;;;;;;;12.63;7.90;;;2.00;85.30;;;;;;4985699;28;20137;-45
2021/04/27 04:56:36;;;;;;;9.55;8.00;;;2.00;85.30;;;;;;4987812;28;20056;-46
2021/04/27 04:59:02;;;;;;;11.73;7.50;;;2.00;85.00;;;;;;5002184;28;20238;-45
2021/04/27 05:01:28;;;;;;;11.35;7.32;;;2.10;84.90;;;;;;5033424;28;20119;-46
2021/04/27 05:04:30;;;;;;;12.52;7.60;;;2.10;84.50;;;;;;4981967;28;20581;-48
2021/04/27 05:07:14;;;;;;;13.27;7.78;;;2.20;84.40;;;;;;4970690;28;20078;-44
2021/04/27 05:09:59;;;;;;;11.05;7.65;;;2.30;84.30;;;;;;4935178;28;20060;-47
2021/04/27 05:12:37;;;;;;;9.32;6.80;;;2.40;83.70;;;;;;4972271;28;20070;-47
2021/04/27 05:15:13;;;;;;;8.68;7.05;;;2.50;83.30;;;;;;4982647;28;20134;-43
2021/04/27 05:17:40;;;;;;;11.02;6.75;;;2.90;83.20;;;;;;4979362;28;20083;-57
2021/04/27 05:20:06;;;;;;;12.73;6.90;;;3.30;81.00;;;;;;4973016;28;20050;-56
2021/04/27 05:22:39;;;;;;;8.65;6.00;;;3.50;79.90;;;;;;4982249;28;20822;-55
2021/04/27 05:25:07;;;;;;;9.13;6.68;;;3.80;79.30;;;;;;5008128;28;20418;-56
2021/04/27 05:27:34;;;;;;;9.40;6.10;;;4.00;78.60;;;;;;5011275;28;20504;-53
2021/04/27 05:30:02;;;;;;;25.08;18.25;;;4.30;77.20;;;;;;5027382;28;20078;-58
2021/04/27 05:32:28;;;;;;;29.00;21.38;;;4.50;78.30;;;;;;5030362;28;20235;-58
2021/04/27 05:34:56;;;;;;;11.40;7.90;;;4.80;76.80;;;;;;5027728;28;20537;-55
2021/04/27 05:37:22;;;;;;;8.80;5.65;;;5.00;74.10;;;;;;5028572;28;20900;-53
2021/04/27 05:39:48;;;;;;;10.00;7.82;;;5.00;74.00;;;;;;5078458;28;20060;-51
2021/04/27 05:42:15;;;;;;;7.20;5.25;;;5.10;73.60;;;;;;5107294;28;20083;-51
2021/04/27 05:44:42;;;;;;;8.80;6.15;;;5.20;71.60;;;;;;5107499;28;20090;-54
2021/04/27 05:47:08;;;;;;;8.80;5.10;;;5.40;71.70;;;;;;5107242;28;20112;-56
2021/04/27 05:49:34;;;;;;;9.63;4.55;;;5.60;71.70;;;;;;5108669;28;20578;-52
2021/04/27 05:52:00;;;;;;;9.43;5.65;;;5.70;70.30;;;;;;5110063;28;20044;-53
2021/04/27 05:54:26;;;;;;;7.97;4.38;;;5.70;69.70;;;;;;5107671;28;20044;-55
2021/04/27 05:56:52;;;;;;;8.48;5.90;;;5.90;70.20;;;;;;5089096;28;20886;-53
2021/04/27 05:59:21;;;;;;;98.82;77.00;;;6.10;69.50;;;;;;5106615;28;20615;-50
2021/04/27 06:01:49;;;;;;;20.02;14.93;;;6.30;68.40;;;;;;5107018;28;20078;-53
2021/04/27 06:04:16;;;;;;;12.15;8.25;;;6.40;67.10;;;;;;5109135;28;20051;-54
2021/04/27 06:06:42;;;;;;;7.47;4.70;;;6.60;67.10;;;;;;5109143;28;20096;-55
2021/04/27 06:09:09;;;;;;;7.63;4.45;;;6.70;67.00;;;;;;5108553;28;20052;-54
2021/04/27 06:11:36;;;;;;;10.70;4.50;;;6.80;66.40;;;;;;5108270;28;20050;-56
2021/04/27 06:14:04;;;;;;;7.07;4.38;;;6.90;65.40;;;;;;5109302;28;20147;-53
2021/04/27 06:16:30;;;;;;;6.18;3.55;;;7.00;63.60;;;;;;5110229;28;20048;-54
2021/04/27 06:18:56;;;;;;;7.95;4.53;;;7.20;64.40;;;;;;5104235;28;20075;-52
2021/04/27 06:21:23;;;;;;;5.35;3.85;;;7.30;64.10;;;;;;5108855;28;20047;-51
2021/04/27 06:23:49;;;;;;;8.02;3.47;;;7.60;62.90;;;;;;5107652;28;20059;-51
2021/04/27 06:26:15;;;;;;;5.85;3.42;;;7.70;62.10;;;;;;5108405;28;20054;-51
2021/04/27 06:28:41;;;;;;;7.97;3.38;;;7.80;62.20;;;;;;5106956;28;20047;-54
2021/04/27 06:31:07;;;;;;;5.85;3.53;;;8.00;61.70;;;;;;5106321;28;20189;-51
2021/04/27 06:33:34;;;;;;;7.68;3.28;;;8.20;60.00;;;;;;5105268;28;20056;-50
2021/04/27 06:36:03;;;;;;;13.75;10.50;;;8.40;60.80;;;;;;5111699;28;20040;-49
2021/04/27 06:38:29;;;;;;;6.45;4.15;;;8.60;58.60;;;;;;5104944;28;20074;-43
2021/04/27 06:40:55;;;;;;;8.60;5.32;;;8.90;58.50;;;;;;5108415;28;20047;-49
2021/04/27 06:43:22;;;;;;;8.75;5.50;;;9.00;56.60;;;;;;5103436;28;20210;-49
2021/04/27 06:45:48;;;;;;;6.60;3.72;;;9.10;56.00;;;;;;5100326;28;20164;-49
2021/04/27 06:48:14;;;;;;;7.45;4.40;;;9.10;54.40;;;;;;5109706;28;20444;-50
2021/04/27 06:50:42;;;;;;;7.15;3.50;;;9.30;54.20;;;;;;5110065;28;20040;-48
2021/04/27 06:53:08;;;;;;;4.35;3.17;;;9.40;53.80;;;;;;5104286;28;20765;-54
2021/04/27 06:55:35;;;;;;;6.45;3.40;;;9.50;52.20;;;;;;5105760;28;20048;-49
2021/04/27 06:58:03;;;;;;;6.75;3.17;;;9.70;51.40;;;;;;5104078;28;20508;-55
2021/04/27 07:00:29;;;;;;;7.25;2.85;;;10.10;53.10;;;;;;5106882;28;20035;-52
2021/04/27 07:02:58;;;;;;;10.32;7.53;;;10.20;51.80;;;;;;5099520;28;20108;-56
2021/04/27 07:05:24;;;;;;;11.50;8.90;;;10.50;49.70;;;;;;5044159;28;20131;-58
2021/04/27 07:07:52;;;;;;;10.32;7.22;;;10.70;49.30;;;;;;5049073;28;20066;-56
2021/04/27 07:10:19;;;;;;;5.72;3.65;;;11.20;49.70;;;;;;5100487;28;20867;-53
2021/04/27 07:12:45;;;;;;;9.25;5.03;;;11.40;47.30;;;;;;5106871;28;20043;-55
2021/04/27 07:15:12;;;;;;;7.85;3.75;;;11.70;47.80;;;;;;5111844;28;20035;-51
2021/04/27 07:17:42;;;;;;;10.35;8.57;;;11.70;45.70;;;;;;5100367;28;20067;-55
2021/04/27 07:20:12;;;;;;;17.30;11.63;;;11.90;44.70;;;;;;5103186;28;20174;-54
2021/04/27 07:22:38;;;;;;;7.35;4.18;;;12.10;45.90;;;;;;5105457;28;20419;-56
2021/04/27 07:25:08;;;;;;;8.52;5.30;;;12.40;45.80;;;;;;5108964;28;20384;-58
2021/04/27 07:27:34;;;;;;;4.93;2.35;;;12.30;41.50;;;;;;5105817;28;20048;-58
2021/04/27 07:30:01;;;;;;;5.28;2.90;;;12.60;43.00;;;;;;5102845;28;20403;-57
2021/04/27 07:32:27;;;;;;;5.57;2.72;;;12.50;42.50;;;;;;5104092;28;20126;-57
2021/04/27 07:34:55;;;;;;;7.13;4.38;;;12.50;42.80;;;;;;5104416;28;20039;-54
2021/04/27 07:37:21;;;;;;;20.55;14.82;;;12.70;43.10;;;;;;5101552;28;20148;-57
2021/04/27 07:39:47;;;;;;;17.67;12.93;;;13.00;42.70;;;;;;5103720;28;20491;-56
2021/04/27 07:42:13;;;;;;;6.18;2.90;;;13.10;42.50;;;;;;5104106;28;20043;-57
2021/04/27 07:44:39;;;;;;;4.28;2.50;;;13.20;42.10;;;;;;5103950;28;20078;-54
2021/04/27 07:47:05;;;;;;;7.97;4.35;;;13.30;41.00;;;;;;5105577;28;20043;-56
2021/04/27 07:49:31;;;;;;;5.10;2.80;;;13.30;40.10;;;;;;5103178;28;20154;-55
2021/04/27 07:51:58;;;;;;;6.53;2.95;;;13.50;40.70;;;;;;5081714;28;20134;-58
2021/04/27 07:54:24;;;;;;;6.60;2.75;;;13.20;38.50;;;;;;5102295;28;20085;-56
2021/04/27 07:56:50;;;;;;;4.32;2.65;;;13.40;39.30;;;;;;5097639;28;20043;-48
2021/04/27 07:59:16;;;;;;;6.93;2.85;;;13.40;38.10;;;;;;5087999;28;20051;-51
2021/04/27 08:01:42;;;;;;;3.92;2.40;;;13.50;39.10;;;;;;5098688;28;20172;-49
2021/04/27 08:04:09;;;;;;;5.50;2.38;;;14.00;38.50;;;;;;5090543;28;20040;-55
2021/04/27 08:06:35;;;;;;;6.70;2.90;;;13.90;38.40;;;;;;5089411;28;20039;-57
2021/04/27 08:09:03;;;;;;;4.97;2.35;;;14.10;37.20;;;;;;5099299;28;20040;-56
2021/04/27 08:11:30;;;;;;;5.50;2.45;;;13.80;36.00;;;;;;5109062;28;20036;-53
2021/04/27 08:13:57;;;;;;;5.93;2.42;;;13.80;36.50;;;;;;5108469;28;20050;-53
2021/04/27 08:16:24;;;;;;;6.10;2.85;;;13.90;37.10;;;;;;5085984;28;20048;-54
2021/04/27 08:18:50;;;;;;;7.65;3.38;;;14.00;36.40;;;;;;5105139;28;20108;-56
2021/04/27 08:21:19;;;;;;;11.70;8.82;;;14.10;35.90;;;;;;5106153;28;20047;-57
2021/04/27 08:23:45;;;;;;;12.80;9.63;;;14.10;36.10;;;;;;5096420;28;20063;-56
2021/04/27 08:26:13;;;;;;;5.68;4.15;;;14.10;35.30;;;;;;5111471;28;20049;-57
2021/04/27 08:28:40;;;;;;;6.20;2.70;;;14.40;34.80;;;;;;5098698;28;20522;-54
2021/04/27 08:31:07;;;;;;;5.80;2.55;;;14.40;35.10;;;;;;5102513;28;20046;-57
2021/04/27 08:33:37;;;;;;;6.38;2.85;;;14.60;35.40;;;;;;5102154;28;20100;-50
2021/04/27 08:36:05;;;;;;;3.30;2.35;;;14.60;34.10;;;;;;5101402;28;20052;-51
2021/04/27 08:38:35;;;;;;;6.43;2.72;;;14.60;34.40;;;;;;5109020;28;20408;-54
2021/04/27 08:41:01;;;;;;;5.32;2.97;;;14.80;34.00;;;;;;5103432;28;20044;-56
2021/04/27 08:43:28;;;;;;;4.20;2.90;;;14.80;33.20;;;;;;5097286;28;20079;-55
2021/04/27 08:45:55;;;;;;;7.38;3.15;;;14.80;32.90;;;;;;5102258;28;20048;-53
2021/04/27 08:48:22;;;;;;;7.43;3.80;;;15.20;33.40;;;;;;5100965;28;20521;-52
2021/04/27 08:50:49;;;;;;;16.98;12.20;;;15.20;33.10;;;;;;5104567;28;20159;-56
2021/04/27 08:53:18;;;;;;;7.35;3.78;;;15.50;33.80;;;;;;5104745;28;20055;-52
2021/04/27 08:55:45;;;;;;;10.15;7.40;;;15.70;32.40;;;;;;5100728;28;20171;-51
2021/04/27 08:58:13;;;;;;;7.82;4.03;;;15.80;32.80;;;;;;5097254;28;20068;-57
2021/04/27 09:00:43;;;;;;;5.85;2.95;;;15.40;30.90;;;;;;5095757;28;20075;-54
2021/04/27 09:03:11;;;;;;;5.85;2.72;;;15.70;31.60;;;;;;5104960;28;20062;-55
2021/04/27 09:05:42;;;;;;;6.88;2.50;;;15.80;31.10;;;;;;5097783;28;20496;-53
2021/04/27 09:08:08;;;;;;;5.20;2.58;;;16.10;30.90;;;;;;5096309;28;20144;-56
2021/04/27 09:10:43;;;;;;;4.97;2.70;;;16.00;30.60;;;;;;5103850;28;20100;-55
2021/04/27 09:13:19;;;;;;;7.78;5.10;;;16.40;29.50;;;;;;5101839;28;20053;-56
2021/04/27 09:15:54;;;;;;;6.85;2.55;;;16.40;29.90;;;;;;5101597;28;20055;-56
2021/04/27 09:18:31;;;;;;;3.85;2.10;;;16.50;29.30;;;;;;5099187;28;20820;-51
2021/04/27 09:21:04;;;;;;;4.90;2.33;;;16.50;29.80;;;;;;5103073;28;20584;-52
2021/04/27 09:23:34;;;;;;;5.90;2.53;;;16.70;28.90;;;;;;5102201;28;20051;-49
2021/04/27 09:26:19;;;;;;;3.72;2.50;;;16.70;28.60;;;;;;5100468;28;20134;-48
2021/04/27 09:28:53;;;;;;;5.25;2.30;;;16.60;28.90;;;;;;5102897;28;21717;-57
2021/04/27 09:31:32;;;;;;;4.90;2.60;;;16.90;29.50;;;;;;5105754;28;20044;-57
2021/04/27 09:34:25;;;;;;;4.53;2.67;;;16.60;29.00;;;;;;5101519;28;20086;-55
2021/04/27 09:37:11;;;;;;;8.23;3.65;;;16.40;29.20;;;;;;5111907;28;20048;-51
2021/04/27 09:39:51;;;;;;;8.60;4.80;;;16.30;28.70;;;;;;5101930;28;20633;-52
2021/04/27 09:42:24;;;;;;;;;;;16.80;29.80;;;;;;5105856;28;20857;-47
2021/04/27 09:44:57;;;;;;;7.75;3.33;;;16.70;28.90;;;;;;5105822;28;19932;-49
2021/04/27 09:47:35;;;;;;;5.82;3.78;;;16.90;28.10;;;;;;5106952;28;20047;-53
2021/04/27 09:50:10;;;;;;;6.15;2.55;;;17.30;28.40;;;;;;5110964;28;20059;-55
2021/04/27 09:52:45;;;;;;;7.38;4.50;;;17.40;28.50;;;;;;5108118;28;20078;-57
2021/04/27 09:55:22;;;;;;;5.30;3.08;;;17.30;27.90;;;;;;5107330;28;20075;-52
2021/04/27 09:57:50;;;;;;;8.50;4.20;;;17.40;28.60;;;;;;5108961;28;20079;-54
2021/04/27 10:00:28;;;;;;;5.10;2.28;;;17.70;28.80;;;;;;5108917;28;20117;-55
2021/04/27 10:03:01;;;;;;;6.90;3.45;;;17.90;27.30;;;;;;5108175;28;20430;-52
2021/04/27 10:05:31;;;;;;;5.30;2.60;;;17.90;27.80;;;;;;5107742;28;20506;-52
2021/04/27 10:07:58;;;;;;;8.60;2.38;;;18.00;27.50;;;;;;5106848;28;20067;-51
2021/04/27 10:10:35;;;;;;;4.05;2.60;;;18.10;27.50;;;;;;5109338;28;20131;-55
2021/04/27 10:13:08;;;;;;;3.75;2.30;;;17.90;26.40;;;;;;5105456;28;20059;-51
2021/04/27 10:15:36;;;;;;;8.77;2.83;;;18.10;26.40;;;;;;5086214;28;20047;-54
2021/04/27 10:18:06;;;;;;;5.90;2.33;;;17.50;26.80;;;;;;5110435;28;20871;-55
2021/04/27 10:20:35;;;;;;;5.40;2.60;;;17.50;27.70;;;;;;5100735;28;20051;-53
2021/04/27 10:23:07;;;;;;;9.32;2.70;;;17.40;27.30;;;;;;5106282;28;20047;-53
2021/04/27 10:25:34;;;;;;;7.05;2.95;;;17.50;27.20;;;;;;5107433;28;20580;-54
2021/04/27 10:28:06;;;;;;;3.85;2.40;;;18.00;26.90;;;;;;5091641;28;20066;-54
2021/04/27 10:30:39;;;;;;;6.00;2.80;;;18.10;26.30;;;;;;5108293;28;20773;-55
2021/04/27 10:33:05;;;;;;;6.22;2.40;;;18.00;26.40;;;;;;5108796;28;20126;-54
2021/04/27 10:35:37;;;;;;;5.20;2.38;;;18.60;27.00;;;;;;5107244;28;20048;-52
2021/04/27 10:38:12;;;;;;;5.40;2.60;;;18.30;26.10;;;;;;5104638;28;20057;-53
2021/04/27 10:41:05;;;;;;;39.88;34.58;;;18.20;26.00;;;;;;5109197;28;20051;-51
2021/04/27 10:43:33;;;;;;;6.80;3.25;;;18.50;26.70;;;;;;5068589;28;20052;-55
2021/04/27 10:46:02;;;;;;;6.30;3.33;;;18.70;26.80;;;;;;5103864;28;20050;-54
2021/04/27 10:48:46;;;;;;;6.60;3.47;;;19.10;25.30;;;;;;5107406;28;20138;-53
2021/04/27 10:51:24;;;;;;;5.38;2.63;;;18.80;26.70;;;;;;5105488;28;20066;-53
2021/04/27 10:54:15;;;;;;;4.75;2.70;;;18.90;26.80;;;;;;5102816;28;20071;-54
2021/04/27 10:56:46;;;;;;;4.90;2.87;;;18.90;26.70;;;;;;5113916;28;20035;-53
2021/04/27 10:59:20;;;;;;;3.95;2.42;;;18.60;26.90;;;;;;5108955;28;20078;-53
2021/04/27 11:01:48;;;;;;;6.15;2.50;;;18.80;26.50;;;;;;5054624;28;20528;-53
2021/04/27 11:04:33;;;;;;;5.85;2.72;;;18.80;26.50;;;;;;5087703;28;20058;-51
2021/04/27 11:07:12;;;;;;;3.67;2.03;;;18.90;25.40;;;;;;5103642;28;20143;-54
2021/04/27 11:09:58;;;;;;;6.85;2.00;;;19.10;26.20;;;;;;5111027;28;20127;-50
2021/04/27 11:12:41;;;;;;;3.65;1.85;;;19.10;26.70;;;;;;5104689;28;20044;-52
2021/04/27 11:15:19;;;;;;;3.85;2.20;;;19.70;25.60;;;;;;5081384;28;20052;-53
2021/04/27 11:18:02;;;;;;;5.05;2.13;;;19.60;24.90;;;;;;5107673;28;20055;-54
2021/04/27 11:20:51;;;;;;;3.63;2.17;;;19.40;24.70;;;;;;5103571;28;20642;-53
2021/04/27 11:23:51;;;;;;;4.05;1.95;;;19.60;24.60;;;;;;5104465;28;20055;-54
2021/04/27 11:26:33;;;;;;;3.35;2.10;;;19.40;26.10;;;;;;5102496;28;20266;-52
2021/04/27 11:29:02;;;;;;;;;;;19.40;25.70;;;;;;5108724;28;20039;-52
2021/04/27 11:31:29;;;;;;;4.78;2.30;;;19.00;25.50;;;;;;5104527;28;20018;-53
2021/04/27 11:34:05;;;;;;;5.43;2.25;;;19.70;26.00;;;;;;5113706;28;20040;-53
2021/04/27 11:36:36;;;;;;;4.13;2.28;;;20.00;25.80;;;;;;5107784;28;20047;-51
2021/04/27 11:39:34;;;;;;;5.50;2.50;;;19.80;25.30;;;;;;5107331;28;20125;-49
2021/04/27 11:42:04;;;;;;;6.18;2.60;;;19.30;24.40;;;;;;4999661;28;20061;-50
2021/04/27 11:44:39;;;;;;;3.53;1.98;;;19.50;25.00;;;;;;5000831;28;20085;-51
2021/04/27 11:47:14;;;;;;;2.88;1.85;;;19.70;24.80;;;;;;4997602;28;20049;-53
2021/04/27 11:49:54;;;;;;;5.60;1.92;;;20.20;24.90;;;;;;5002184;28;20141;-53
2021/04/27 11:52:45;;;;;;;5.63;2.25;;;20.00;23.20;;;;;;4993388;28;20065;-52
2021/04/27 11:55:32;;;;;;;5.25;2.08;;;20.60;24.10;;;;;;5007227;28;20156;-51
2021/04/27 11:58:09;;;;;;;4.13;2.45;;;20.30;24.20;;;;;;5000312;28;20076;-52
2021/04/27 12:00:39;;;;;;;6.30;2.58;;;20.20;24.40;;;;;;4994118;28;20054;-50
2021/04/27 12:03:24;;;;;;;4.60;2.53;;;19.90;24.40;;;;;;4991014;28;20096;-49
2021/04/27 12:05:56;;;;;;;2.90;2.10;;;19.70;23.50;;;;;;5002768;28;20046;-53
2021/04/27 12:08:32;;;;;;;5.50;2.20;;;19.80;24.50;;;;;;5002168;28;20141;-53
2021/04/27 12:11:11;;;;;;;5.13;2.25;;;20.10;24.50;;;;;;4994976;28;20561;-52
2021/04/27 12:14:01;;;;;;;47.00;41.85;;;20.30;23.50;;;;;;5004776;28;20062;-51
2021/04/27 12:16:30;;;;;;;11.57;8.07;;;20.50;23.80;;;;;;5000821;28;20054;-51
2021/04/27 12:19:11;;;;;;;8.15;4.25;;;20.30;23.80;;;;;;5070180;28;20065;-49
2021/04/27 12:22:05;;;;;;;5.13;3.53;;;20.70;24.50;;;;;;5106641;28;20059;-50
2021/04/27 12:24:44;;;;;;;23.55;20.63;;;21.00;23.60;;;;;;5101594;28;20077;-53
2021/04/27 12:27:19;;;;;;;10.55;5.63;;;20.60;23.00;;;;;;5102037;28;20058;-49
2021/04/27 12:30:04;;;;;;;7.60;4.68;;;20.60;23.30;;;;;;5106486;28;20050;-49
2021/04/27 12:32:39;;;;;;;8.52;4.45;;;20.50;23.30;;;;;;5101902;28;20093;-50
2021/04/27 12:35:23;;;;;;;4.97;3.22;;;20.80;23.20;;;;;;5101737;28;20067;-53
2021/04/27 12:38:09;;;;;;;7.57;5.72;;;20.30;23.30;;;;;;5101438;28;20104;-49
2021/04/27 12:40:40;;;;;;;6.93;3.15;;;19.90;23.40;;;;;;5106796;28;20112;-50
2021/04/27 12:43:12;;;;;;;5.70;3.47;;;19.70;23.50;;;;;;5107333;28;20047;-52
2021/04/27 12:45:46;;;;;;;7.72;3.55;;;20.00;23.00;;;;;;5078492;28;20067;-51
2021/04/27 12:48:16;;;;;;;6.47;2.70;;;20.00;23.00;;;;;;5069416;28;20079;-52
2021/04/27 12:51:10;;;;;;;4.57;3.00;;;20.40;23.20;;;;;;5085938;28;20082;-48
2021/04/27 12:53:38;;;;;;;5.13;2.95;;;19.70;22.50;;;;;;5081229;28;20044;-49
2021/04/27 12:56:23;;;;;;;28.83;24.30;;;20.20;22.40;;;;;;5086460;28;20051;-50
2021/04/27 12:58:52;;;;;;;27.73;24.77;;;21.00;24.50;;;;;;5085543;28;20083;-52
2021/04/27 13:01:24;;;;;;;5.07;4.10;;;21.50;23.70;;;;;;5080611;28;20056;-49
2021/04/27 13:03:57;;;;;;;11.70;6.55;;;21.40;22.10;;;;;;5080768;28;20496;-47
2021/04/27 13:06:29;;;;;;;6.97;5.70;;;21.50;22.40;;;;;;5087210;28;20048;-53
2021/04/27 13:09:15;;;;;;;6.50;4.35;;;21.60;23.20;;;;;;5079148;28;20044;-52
2021/04/27 13:12:04;;;;;;;5.55;4.55;;;22.10;22.40;;;;;;5081809;28;20040;-51